Cayuse — WDI3180 — position and weather

sailwx.info

Track history (hours):
 
Tides and Currents Weather Stations Pressure Air Temp Water Temp Dewpoint Dewpoint Depression Visibility Wind Speed Wind Dir Waves Ship Positions

Cayuse

Owner: Peterson, Jill M, Seattle, WA. More information available from US FCC via Universal Licensing System and Coast Guard Vessel Documentation Center.

Last reported at 2017-Oct-14 23:16 UTC. Time now 2017-Oct-22 21:19 UTC.
Position N 32°43' W 117°12'.

Length 11 m.

Type: Sailing vessel. MMSI: 367685780.

Date/timePositionNaut miles runAvg speedWind from/ knotsBaromVisibWave heightAir tempDewpointWater temp
2017-Oct-14 23:16N 32°43' W 117°12'2 6.4
2017-Oct-14 23:00N 32°42' W 117°14'0 0.6
2017-Oct-14 22:25N 32°43' W 117°14'0 0.1
2017-Oct-14 22:00N 32°43' W 117°14'2 4.3
2017-Oct-14 21:30N 32°40' W 117°14'3 6.0
2017-Oct-14 21:00N 32°38' W 117°14'3 6.4
2017-Oct-14 20:30N 32°40' W 117°17'3 6.8
2017-Oct-14 20:00N 32°42' W 117°20'3 6.6
2017-Oct-14 19:30N 32°44' W 117°23'3 6.7
2017-Oct-14 19:00N 32°46' W 117°26'3 6.9
2017-Oct-14 18:30N 32°48' W 117°30'3 6.7
2017-Oct-14 17:59N 32°50' W 117°33'3 6.6
2017-Oct-14 17:30N 32°52' W 117°36'3 6.3
2017-Oct-14 17:00N 32°54' W 117°39'3 6.4
2017-Oct-14 16:30N 32°56' W 117°42'3 6.1
2017-Oct-14 16:00N 32°58' W 117°45'3 6.2
2017-Oct-14 15:30N 33°00' W 117°47'3 6.4
2017-Oct-14 14:58N 33°02' W 117°50'3 6.4
2017-Oct-14 14:26N 33°05' W 117°54'3 6.3
2017-Oct-14 13:58N 33°06' W 117°56'5 6.3
2017-Oct-14 13:09N 33°10' W 118°01'1 6.2
2017-Oct-14 12:59N 33°10' W 118°02'4 6.1
2017-Oct-14 12:24N 33°12' W 118°06'6 5.9
2017-Oct-14 11:23N 33°16' W 118°11'3 6.3
2017-Oct-14 10:50N 33°18' W 118°15'4 6.4
2017-Oct-14 10:16N 33°20' W 118°18'1 5.0
2017-Oct-14 10:00N 33°21' W 118°20'  
2017-Oct-10 20:53N 33°21' W 118°20'1 2.1
2017-Oct-10 20:30N 33°20' W 118°19'2 4.5
2017-Oct-10 20:00N 33°18' W 118°18'16 0.3
2017-Oct-08 19:20N 33°29' W 118°32'2 6.2
2017-Oct-08 19:00N 33°28' W 118°30'  
Track history (hours):
 
Tides and Currents Weather Stations Pressure Air Temp Water Temp Dewpoint Dewpoint Depression Visibility Wind Speed Wind Dir Waves Ship Positions

Cayuse

Owner: Peterson, Jill M, Seattle, WA. More information available from US FCC via Universal Licensing System and Coast Guard Vessel Documentation Center.

Last reported at 2017-Oct-14 23:16 UTC. Time now 2017-Oct-22 21:19 UTC.
Position N 32°43' W 117°12'.

Length 11 m.

Type: Sailing vessel. MMSI: 367685780.

Date/timePositionNaut miles runAvg speedWind from/ knotsBaromVisibWave heightAir tempDewpointWater temp
2017-Oct-14 23:16N 32°43' W 117°12'2 6.4
2017-Oct-14 23:00N 32°42' W 117°14'0 0.6
2017-Oct-14 22:25N 32°43' W 117°14'0 0.1
2017-Oct-14 22:00N 32°43' W 117°14'2 4.3
2017-Oct-14 21:30N 32°40' W 117°14'3 6.0
2017-Oct-14 21:00N 32°38' W 117°14'3 6.4
2017-Oct-14 20:30N 32°40' W 117°17'3 6.8
2017-Oct-14 20:00N 32°42' W 117°20'3 6.6
2017-Oct-14 19:30N 32°44' W 117°23'3 6.7
2017-Oct-14 19:00N 32°46' W 117°26'3 6.9
2017-Oct-14 18:30N 32°48' W 117°30'3 6.7
2017-Oct-14 17:59N 32°50' W 117°33'3 6.6
2017-Oct-14 17:30N 32°52' W 117°36'3 6.3
2017-Oct-14 17:00N 32°54' W 117°39'3 6.4
2017-Oct-14 16:30N 32°56' W 117°42'3 6.1
2017-Oct-14 16:00N 32°58' W 117°45'3 6.2
2017-Oct-14 15:30N 33°00' W 117°47'3 6.4
2017-Oct-14 14:58N 33°02' W 117°50'3 6.4
2017-Oct-14 14:26N 33°05' W 117°54'3 6.3
2017-Oct-14 13:58N 33°06' W 117°56'5 6.3
2017-Oct-14 13:09N 33°10' W 118°01'1 6.2
2017-Oct-14 12:59N 33°10' W 118°02'4 6.1
2017-Oct-14 12:24N 33°12' W 118°06'6 5.9
2017-Oct-14 11:23N 33°16' W 118°11'3 6.3
2017-Oct-14 10:50N 33°18' W 118°15'4 6.4
2017-Oct-14 10:16N 33°20' W 118°18'1 5.0
2017-Oct-14 10:00N 33°21' W 118°20'  
2017-Oct-10 20:53N 33°21' W 118°20'1 2.1
2017-Oct-10 20:30N 33°20' W 118°19'2 4.5
2017-Oct-10 20:00N 33°18' W 118°18'16 0.3
2017-Oct-08 19:20N 33°29' W 118°32'2 6.2
2017-Oct-08 19:00N 33°28' W 118°30'  

Dump ship's entire track history